Maryville, South Carolina
Current Conditions -  °F | °C
As of 8:35 PM on Sunday 23 Nov 2014 (Local Time) from KHYW Reporting Station
Thunderstorm Thunderstorm  
Wind Chill: 68°   Ceiling: 1200
Heat Index: 68°   Visibility: 4mi
Dew Point: 68°   Wind: 8mph
Humidity: 100%   Direction: 150°SSE
Pressure: 29.85"   Gusts: 16mph
Location:  33.6042°N, 79.2815°W
Report Text: KHYW 240135Z AUTO 15007G14KT 4SM +VCTSRA SCT006 OVC012 20/20 A2985 RMK AO2 LTG DSNT ALQS P0008
Loading
Personal Weather Stations






























Interactive Weather Map New forecast layout! Learn more

10-Day Weather Forecast

Advertisements
Track Severe Weather on mobile